createdAt,value
2019-05-26T00:03:17.682Z,9.43
2019-05-26T00:06:39.748Z,5.70
2019-05-26T00:10:02.164Z,6.67
2019-05-26T00:13:24.676Z,6.25
2019-05-26T00:16:46.716Z,4.95
2019-05-26T00:20:09.960Z,6.90
2019-05-26T00:23:32.487Z,7.10
2019-05-26T00:26:55.124Z,6.55
2019-05-26T00:30:18.469Z,8.20
2019-05-26T00:33:40.507Z,6.78
2019-05-26T00:37:02.530Z,8.35
2019-05-26T00:40:26.196Z,5.08
2019-05-26T00:43:48.215Z,4.87
2019-05-26T00:47:10.272Z,9.40
2019-05-26T00:50:33.154Z,8.53
2019-05-26T00:53:55.188Z,7.97
2019-05-26T00:57:17.479Z,5.30
2019-05-26T01:00:56.887Z,11.93
2019-05-26T01:04:20.047Z,5.65
2019-05-26T01:07:42.542Z,5.25
2019-05-26T01:11:04.559Z,5.22
2019-05-26T01:14:26.617Z,3.55
2019-05-26T01:17:48.750Z,6.33
2019-05-26T01:21:11.117Z,8.00
2019-05-26T01:24:33.147Z,6.10
2019-05-26T01:27:55.282Z,7.20
2019-05-26T01:31:17.404Z,4.72
2019-05-26T01:34:39.475Z,6.58
2019-05-26T01:38:01.712Z,5.75
2019-05-26T01:41:23.772Z,8.33
2019-05-26T01:44:45.840Z,9.70
2019-05-26T01:48:07.934Z,4.80
2019-05-26T01:51:31.635Z,7.70
2019-05-26T01:54:53.709Z,5.47
2019-05-26T01:58:16.528Z,7.72
2019-05-26T02:01:38.596Z,8.73
2019-05-26T02:05:00.611Z,6.45
2019-05-26T02:08:36.580Z,8.15
2019-05-26T02:11:46.622Z,6.45
2019-05-26T02:15:09.095Z,6.42
2019-05-26T02:18:31.121Z,6.78
2019-05-26T02:21:53.246Z,7.40
2019-05-26T02:25:17.028Z,5.42
2019-05-26T02:28:41.816Z,5.60
2019-05-26T02:32:04.117Z,6.60
2019-05-26T02:35:26.893Z,6.58
2019-05-26T02:39:01.908Z,6.28
2019-05-26T02:42:15.205Z,6.67
2019-05-26T02:45:38.676Z,7.25
2019-05-26T02:49:00.738Z,8.23
2019-05-26T02:52:22.900Z,6.47
2019-05-26T02:55:45.103Z,6.72
2019-05-26T02:59:07.239Z,5.95
2019-05-26T03:02:29.460Z,5.92
2019-05-26T03:05:52.830Z,5.58
2019-05-26T03:09:23.339Z,9.03
2019-05-26T03:12:45.162Z,7.12
2019-05-26T03:16:08.067Z,7.22
2019-05-26T03:19:32.434Z,9.15
2019-05-26T03:22:57.663Z,7.78
2019-05-26T03:26:21.414Z,9.30
2019-05-26T03:29:43.451Z,8.53
2019-05-26T03:33:05.480Z,10.20
2019-05-26T03:36:27.586Z,6.35
2019-05-26T03:39:49.701Z,10.15
2019-05-26T03:43:11.762Z,7.95
2019-05-26T03:46:34.757Z,7.53
2019-05-26T03:49:56.842Z,7.55
2019-05-26T03:53:18.862Z,11.70
2019-05-26T03:56:40.948Z,10.63
2019-05-26T04:00:03.002Z,9.05
2019-05-26T04:03:25.193Z,9.10
2019-05-26T04:06:48.809Z,8.13
2019-05-26T04:10:12.471Z,8.53
2019-05-26T04:13:34.806Z,9.45
2019-05-26T04:16:58.617Z,9.15
2019-05-26T04:20:20.746Z,12.37
2019-05-26T04:23:42.826Z,9.18
2019-05-26T04:27:04.889Z,8.93
2019-05-26T04:30:27.362Z,8.25
2019-05-26T04:33:49.436Z,10.95
2019-05-26T04:37:11.475Z,10.93
2019-05-26T04:40:33.568Z,9.20
2019-05-26T04:43:55.654Z,8.45
2019-05-26T04:47:17.951Z,7.80
2019-05-26T04:50:39.972Z,6.17
2019-05-26T04:54:02.465Z,8.33
2019-05-26T04:57:24.493Z,9.30
2019-05-26T05:00:46.538Z,7.90
2019-05-26T05:04:08.569Z,12.85
2019-05-26T05:07:30.879Z,10.50
2019-05-26T05:10:52.957Z,10.15
2019-05-26T05:14:15.474Z,10.32
2019-05-26T05:17:37.544Z,8.55
2019-05-26T05:20:59.575Z,8.75
2019-05-26T05:24:21.698Z,10.05
2019-05-26T05:27:43.770Z,7.83
2019-05-26T05:31:05.873Z,11.70
2019-05-26T05:34:29.571Z,7.03
2019-05-26T05:37:51.682Z,12.23
2019-05-26T05:41:16.380Z,9.95
2019-05-26T05:44:38.523Z,13.50
2019-05-26T05:48:00.744Z,11.10
2019-05-26T05:51:22.817Z,8.95
2019-05-26T05:54:44.924Z,12.50
2019-05-26T05:58:07.126Z,7.75
2019-05-26T06:01:29.196Z,8.95
2019-05-26T06:04:51.243Z,9.20
2019-05-26T06:08:13.778Z,8.58
2019-05-26T06:11:35.854Z,12.15
2019-05-26T06:14:57.911Z,6.55
2019-05-26T06:18:19.998Z,9.53
2019-05-26T06:21:45.758Z,9.05
2019-05-26T06:25:07.891Z,10.38
2019-05-26T06:28:29.989Z,13.53
2019-05-26T06:31:55.377Z,10.53
2019-05-26T06:35:17.945Z,11.43
2019-05-26T06:38:43.444Z,9.33
2019-05-26T06:42:06.279Z,10.60
2019-05-26T06:45:28.847Z,9.68
2019-05-26T06:48:51.616Z,9.98
2019-05-26T06:52:16.857Z,14.20
2019-05-26T06:55:39.216Z,9.40
2019-05-26T06:59:02.954Z,10.25
2019-05-26T07:02:27.975Z,10.30
2019-05-26T11:34:41.521Z,2.47
2019-05-26T11:37:59.210Z,4.22
2019-05-26T11:41:15.775Z,3.12
2019-05-26T11:44:32.308Z,4.05
2019-05-26T11:47:49.516Z,3.80
2019-05-26T11:51:06.518Z,9.20
2019-05-26T11:54:23.637Z,4.42
2019-05-26T11:57:43.625Z,2.20
2019-05-26T12:01:00.266Z,5.28
2019-05-26T12:04:16.874Z,3.98
2019-05-26T12:07:33.435Z,3.52
2019-05-26T12:10:50.285Z,3.40
2019-05-26T12:14:11.909Z,1.77
2019-05-26T12:17:28.515Z,3.87
2019-05-26T12:20:45.025Z,3.47
2019-05-26T12:24:01.699Z,2.52
2019-05-26T12:31:41.559Z,4.33
2019-05-26T12:34:58.122Z,1.42
2019-05-26T12:38:18.602Z,2.77
2019-05-26T12:41:37.328Z,1.70
2019-05-26T12:44:53.463Z,1.98
2019-05-26T12:48:10.184Z,2.30
2019-05-26T12:51:27.028Z,4.92
2019-05-26T12:54:43.687Z,2.90
2019-05-26T12:58:00.234Z,5.03
2019-05-26T13:01:16.938Z,2.02
2019-05-26T13:04:33.594Z,2.20
2019-05-26T13:07:50.735Z,7.42
2019-05-26T13:11:07.354Z,2.20
2019-05-26T13:14:23.992Z,6.87
2019-05-26T13:17:40.494Z,2.95
2019-05-26T13:20:57.101Z,10.13
2019-05-26T13:24:13.707Z,6.35
2019-05-26T13:27:30.425Z,3.55
2019-05-26T13:30:48.847Z,6.62
2019-05-26T13:34:05.423Z,3.35
2019-05-26T13:37:22.035Z,2.50
2019-05-26T13:40:38.692Z,1.32
2019-05-26T13:43:55.186Z,1.47
2019-05-26T13:47:25.416Z,3.08
2019-05-26T13:50:30.260Z,1.52
2019-05-26T13:53:46.823Z,2.00
2019-05-26T13:57:03.648Z,3.60
2019-05-26T14:00:22.716Z,2.58
2019-05-26T14:03:39.278Z,1.65
2019-05-26T14:06:55.832Z,1.30
2019-05-26T14:10:12.649Z,1.77
2019-05-26T14:13:29.179Z,6.17
2019-05-26T14:16:46.157Z,4.08
2019-05-26T14:20:03.361Z,9.45
2019-05-26T14:23:19.978Z,3.40
2019-05-26T14:26:36.565Z,8.18
2019-05-26T14:29:53.259Z,4.53
2019-05-26T14:33:09.958Z,3.35
2019-05-26T14:36:26.570Z,3.30
2019-05-26T14:39:43.172Z,5.67
2019-05-26T14:42:59.976Z,4.28
2019-05-26T14:46:16.602Z,1.72
2019-05-26T14:49:33.192Z,3.50
2019-05-26T14:52:49.789Z,5.95
2019-05-26T14:56:07.301Z,5.33
2019-05-26T14:59:24.079Z,2.27
2019-05-26T15:02:40.582Z,5.25
2019-05-26T15:06:05.895Z,4.47
2019-05-26T15:09:25.274Z,4.70
2019-05-26T15:12:37.247Z,1.95
2019-05-26T15:16:08.847Z,3.92
2019-05-26T15:19:14.094Z,1.62
2019-05-26T15:22:33.086Z,3.02
2019-05-26T15:25:51.618Z,1.40
2019-05-26T15:29:13.358Z,3.17
2019-05-26T15:32:29.812Z,2.22
2019-05-26T15:35:46.422Z,1.30
2019-05-26T15:39:03.125Z,1.40
2019-05-26T15:42:20.000Z,3.25
2019-05-26T15:45:39.050Z,3.30
2019-05-26T15:52:31.603Z,4.92
2019-05-26T15:55:48.833Z,8.53
2019-05-26T15:59:05.731Z,2.67
2019-05-26T16:02:22.482Z,5.47
2019-05-26T16:05:39.022Z,4.45
2019-05-26T16:08:55.829Z,3.10
2019-05-26T16:12:12.599Z,3.00
2019-05-26T16:15:29.540Z,6.97
2019-05-26T16:18:46.115Z,5.20
2019-05-26T16:22:02.827Z,4.17
2019-05-26T16:25:20.680Z,5.40
2019-05-26T16:28:42.931Z,3.00
2019-05-26T16:31:59.766Z,4.87
2019-05-26T16:35:16.898Z,7.53
2019-05-26T16:38:33.680Z,3.62
2019-05-26T16:41:51.085Z,2.45
2019-05-26T16:45:07.885Z,2.45
2019-05-26T16:48:24.605Z,3.95
2019-05-26T16:51:41.166Z,2.45
2019-05-26T16:54:58.211Z,3.75
2019-05-26T16:58:14.763Z,4.62
2019-05-26T17:01:31.645Z,3.62
2019-05-26T17:04:48.291Z,3.90
2019-05-26T17:08:04.824Z,2.67
2019-05-26T17:11:21.404Z,5.28
2019-05-26T17:14:38.968Z,2.80
2019-05-26T17:17:59.577Z,4.30
2019-05-26T17:21:22.226Z,2.27
2019-05-26T17:24:42.591Z,4.45
2019-05-26T17:28:00.481Z,3.52
2019-05-26T17:31:17.343Z,3.27
2019-05-26T17:34:41.530Z,6.12
2019-05-26T17:37:59.760Z,3.17
2019-05-26T17:41:16.482Z,5.53
2019-05-26T17:44:33.442Z,3.42
2019-05-26T17:47:50.464Z,3.15
2019-05-26T17:51:07.132Z,4.50
2019-05-26T17:54:23.828Z,4.10
2019-05-26T17:57:40.480Z,5.97
2019-05-26T18:00:57.235Z,3.08
2019-05-26T18:04:14.108Z,6.10
2019-05-26T18:07:31.121Z,5.58
2019-05-26T18:10:48.043Z,3.00
2019-05-26T18:14:04.791Z,2.95
2019-05-26T18:17:21.463Z,6.55
2019-05-26T18:20:38.137Z,3.52
2019-05-26T18:23:55.049Z,3.05
2019-05-26T18:27:12.013Z,4.62
2019-05-26T18:30:28.718Z,4.55
2019-05-26T18:33:46.201Z,5.45
2019-05-26T18:37:02.684Z,7.10
2019-05-26T18:40:19.877Z,4.25
2019-05-26T18:43:36.460Z,5.47
2019-05-26T18:46:53.788Z,4.92
2019-05-26T18:50:11.280Z,10.38
2019-05-26T18:53:29.816Z,10.82
2019-05-26T18:56:46.924Z,4.33
2019-05-26T19:00:03.983Z,6.03
2019-05-26T19:03:25.830Z,9.80
2019-05-26T19:06:42.971Z,10.20
2019-05-26T19:09:59.848Z,6.87
2019-05-26T19:13:17.145Z,9.65
2019-05-26T19:16:33.783Z,6.90
2019-05-26T19:19:53.075Z,4.28
2019-05-26T19:23:10.247Z,8.30
2019-05-26T19:26:28.378Z,5.62
2019-05-26T19:29:44.938Z,5.40
2019-05-26T19:33:01.871Z,6.65
2019-05-26T19:36:18.845Z,6.58
2019-05-26T19:39:35.552Z,4.03
2019-05-26T19:42:52.064Z,3.42
2019-05-26T19:46:09.039Z,3.05
2019-05-26T19:49:25.600Z,5.05
2019-05-26T19:52:42.192Z,3.67
2019-05-26T19:55:59.251Z,7.33
2019-05-26T19:59:17.243Z,3.42
2019-05-26T20:02:35.039Z,3.50
2019-05-26T20:05:51.777Z,4.87
2019-05-26T20:09:08.808Z,3.22
2019-05-26T20:12:26.758Z,2.67
2019-05-26T20:15:43.667Z,6.60
2019-05-26T20:19:01.514Z,6.58
2019-05-26T20:22:18.696Z,4.37
2019-05-26T20:25:35.324Z,4.67
2019-05-26T20:28:52.027Z,5.25
2019-05-26T20:32:08.695Z,2.98
2019-05-26T20:35:26.485Z,6.60
2019-05-26T20:38:43.197Z,4.70
2019-05-26T20:42:00.259Z,4.42
2019-05-26T20:45:18.446Z,5.37
2019-05-26T20:48:35.126Z,6.62
2019-05-26T20:51:51.803Z,5.72
2019-05-26T20:55:08.578Z,4.95
2019-05-26T20:58:26.183Z,8.23
2019-05-26T21:01:43.826Z,4.87
2019-05-26T21:05:07.617Z,7.78
2019-05-26T21:08:30.057Z,4.78
2019-05-26T21:11:53.831Z,5.60
2019-05-26T21:15:12.037Z,6.25
2019-05-26T21:18:28.748Z,6.15
2019-05-26T21:21:45.303Z,5.92
2019-05-26T21:25:01.920Z,6.00
2019-05-26T21:28:23.757Z,7.97
2019-05-26T21:31:40.251Z,7.33
2019-05-26T21:34:56.907Z,7.28
2019-05-26T21:38:13.432Z,9.13
2019-05-26T21:41:29.961Z,7.60
2019-05-26T21:44:46.508Z,6.33
2019-05-26T21:48:03.042Z,5.42
2019-05-26T21:51:20.298Z,10.98
2019-05-26T21:54:41.317Z,10.63
2019-05-26T21:57:58.010Z,5.47
2019-05-26T22:01:14.724Z,7.37
2019-05-26T22:04:31.292Z,7.37
2019-05-26T22:07:47.833Z,7.33
2019-05-26T22:11:04.707Z,6.35
2019-05-26T22:14:21.226Z,8.00
2019-05-26T22:17:37.828Z,8.10
2019-05-26T22:20:54.436Z,6.47
2019-05-26T22:24:10.985Z,8.75
2019-05-26T22:27:31.659Z,7.33
2019-05-26T22:30:48.341Z,7.03
2019-05-26T22:34:06.041Z,8.63
2019-05-26T22:37:22.644Z,5.53
2019-05-26T22:40:39.293Z,5.55
2019-05-26T22:43:55.793Z,6.72
2019-05-26T22:47:13.444Z,6.83
2019-05-26T22:50:30.546Z,5.75
2019-05-26T22:53:47.072Z,7.97
2019-05-26T22:57:03.582Z,6.60
2019-05-26T23:00:21.827Z,10.10
2019-05-26T23:03:38.348Z,6.30
2019-05-26T23:06:54.902Z,6.62
2019-05-26T23:10:12.200Z,7.05
2019-05-26T23:13:29.254Z,8.28
2019-05-26T23:16:45.881Z,10.50
2019-05-26T23:20:02.611Z,7.97
2019-05-26T23:23:19.108Z,8.08
2019-05-26T23:26:35.645Z,6.30
2019-05-26T23:29:52.210Z,9.98
2019-05-26T23:33:08.705Z,6.95
2019-05-26T23:36:29.625Z,5.95
2019-05-26T23:39:46.117Z,6.12
2019-05-26T23:43:02.716Z,7.12
2019-05-26T23:46:19.182Z,7.00
2019-05-26T23:49:35.749Z,7.28
2019-05-26T23:52:52.280Z,8.53
2019-05-26T23:56:08.809Z,7.45
2019-05-26T23:59:27.529Z,6.87
